Time;durP1;ratioP1;P1;durP2;ratioP2;P2;SDS_P1;SDS_P2;PMS_P1;PMS_P2;Temp;Humidity;BMP_temperature;BMP_pressure;BME280_temperature;BME280_humidity;BME280_pressure;Samples;Min_cycle;Max_cycle;Signal;HPM_P1;HPM_P2
2023/06/30 00:01:28;;;;;;;19.05;11.73;;;13.60;99.90;;;;;;4933437;29;20403;-79
2023/06/30 00:03:54;;;;;;;15.60;11.27;;;13.60;99.90;;;;;;4904970;29;20047;-79
2023/06/30 00:06:20;;;;;;;15.60;10.70;;;13.60;99.90;;;;;;4899607;29;20545;-79
2023/06/30 00:08:45;;;;;;;20.10;12.52;;;13.60;99.90;;;;;;4924927;29;20091;-79
2023/06/30 00:11:11;;;;;;;11.93;8.98;;;13.60;99.90;;;;;;4917599;29;20031;-79
2023/06/30 00:13:37;;;;;;;16.88;10.50;;;13.60;99.90;;;;;;4902787;29;20546;-79
2023/06/30 00:16:02;;;;;;;15.13;10.60;;;13.50;99.90;;;;;;4918161;29;20507;-80
2023/06/30 00:18:29;;;;;;;14.10;8.95;;;13.50;99.90;;;;;;4918292;29;20095;-79
2023/06/30 00:20:54;;;;;;;13.65;9.85;;;13.40;99.90;;;;;;4914196;29;20520;-79
2023/06/30 00:23:20;;;;;;;15.02;9.95;;;13.40;99.90;;;;;;4918216;29;20040;-79
2023/06/30 00:25:46;;;;;;;11.95;8.27;;;13.30;99.90;;;;;;4917335;29;20122;-79
2023/06/30 00:28:12;;;;;;;13.57;8.93;;;13.20;99.90;;;;;;4917988;29;20066;-79
2023/06/30 00:30:38;;;;;;;14.60;8.35;;;13.20;99.90;;;;;;4904466;29;20175;-79
2023/06/30 00:33:04;;;;;;;18.98;10.65;;;13.10;99.90;;;;;;4926903;29;20130;-79
2023/06/30 00:35:30;;;;;;;14.68;9.63;;;13.00;99.90;;;;;;4899104;29;20040;-79
2023/06/30 00:37:55;;;;;;;12.18;8.48;;;13.00;99.90;;;;;;4918444;29;20032;-79
2023/06/30 00:40:21;;;;;;;11.27;8.35;;;12.90;99.90;;;;;;4914681;29;20079;-79
2023/06/30 00:42:47;;;;;;;16.08;9.02;;;12.90;99.90;;;;;;4917147;29;20050;-80
2023/06/30 00:45:13;;;;;;;13.98;8.82;;;12.80;99.90;;;;;;4909583;29;20051;-80
2023/06/30 00:47:39;;;;;;;13.82;9.27;;;12.80;99.90;;;;;;4931688;29;20039;-79
2023/06/30 00:50:05;;;;;;;13.23;8.73;;;12.70;99.90;;;;;;4918356;29;20048;-80
2023/06/30 00:52:31;;;;;;;16.55;9.98;;;12.70;99.90;;;;;;4898952;29;20035;-80
2023/06/30 00:54:57;;;;;;;13.88;9.65;;;12.70;99.90;;;;;;4898827;29;20107;-80
2023/06/30 00:57:23;;;;;;;11.88;9.00;;;12.70;99.90;;;;;;4927156;29;20035;-80
2023/06/30 00:59:48;;;;;;;14.45;9.82;;;12.70;99.90;;;;;;4913780;29;20036;-80
2023/06/30 01:02:19;;;;;;;15.43;10.75;;;12.60;99.90;;;;;;4915436;29;20039;-80
2023/06/30 01:04:53;;;;;;;13.20;9.57;;;12.60;99.90;;;;;;4898910;29;20039;-80
2023/06/30 01:07:27;;;;;;;15.38;11.02;;;12.60;99.90;;;;;;4914359;29;20566;-79
2023/06/30 01:10:14;;;;;;;13.90;9.02;;;12.60;99.90;;;;;;4898685;29;20074;-80
2023/06/30 01:12:41;;;;;;;15.93;9.98;;;12.60;99.90;;;;;;4924560;29;20036;-80
2023/06/30 01:15:07;;;;;;;17.05;10.90;;;12.50;99.90;;;;;;4900878;29;20105;-79
2023/06/30 01:17:34;;;;;;;16.17;10.35;;;12.40;99.90;;;;;;4991812;23;20496;-76
2023/06/30 01:20:03;;;;;;;18.58;11.95;;;12.40;99.90;;;;;;4957628;28;20121;-76
2023/06/30 01:22:39;;;;;;;14.00;10.13;;;12.40;99.90;;;;;;4974122;28;20493;-76
2023/06/30 01:25:10;;;;;;;14.15;11.20;;;12.40;99.90;;;;;;4974288;28;20034;-76
2023/06/30 01:27:39;;;;;;;17.42;10.90;;;12.30;99.90;;;;;;4947172;28;20077;-76
2023/06/30 01:30:06;;;;;;;19.33;11.10;;;12.20;99.90;;;;;;4962342;28;20046;-76
2023/06/30 01:32:32;;;;;;;16.10;11.52;;;12.20;99.90;;;;;;4954508;28;20393;-76
2023/06/30 01:34:58;;;;;;;16.17;10.35;;;12.20;99.90;;;;;;4955331;28;20043;-76
2023/06/30 01:37:23;;;;;;;16.15;10.35;;;12.10;99.90;;;;;;4955409;28;20097;-76
2023/06/30 01:39:49;;;;;;;13.73;9.38;;;12.10;99.90;;;;;;4955448;28;20031;-76
2023/06/30 01:42:16;;;;;;;13.52;10.13;;;12.00;99.90;;;;;;4952420;28;20030;-76
2023/06/30 01:44:43;;;;;;;12.70;9.90;;;12.00;99.90;;;;;;4955536;28;20070;-75
2023/06/30 01:47:10;;;;;;;12.93;9.23;;;11.90;99.90;;;;;;4955139;28;20042;-75
2023/06/30 01:49:35;;;;;;;15.20;9.32;;;11.90;99.90;;;;;;4955319;28;20097;-75
2023/06/30 01:52:01;;;;;;;13.20;9.20;;;11.90;99.90;;;;;;4968163;28;20525;-75
2023/06/30 01:54:27;;;;;;;11.68;9.30;;;11.80;99.90;;;;;;4957865;28;20074;-76
2023/06/30 01:56:53;;;;;;;13.63;9.55;;;11.80;99.90;;;;;;4954572;28;20069;-76
2023/06/30 01:59:18;;;;;;;11.63;7.93;;;11.70;99.90;;;;;;4955330;28;20034;-75
2023/06/30 02:01:44;;;;;;;14.65;9.65;;;11.70;99.90;;;;;;4954011;28;20126;-75
2023/06/30 02:04:10;;;;;;;14.88;10.35;;;11.60;99.90;;;;;;4939157;28;20039;-76
2023/06/30 02:06:36;;;;;;;11.85;9.50;;;11.50;99.90;;;;;;4954804;28;20108;-76
2023/06/30 02:09:02;;;;;;;14.63;10.15;;;11.50;99.90;;;;;;4963123;28;20046;-75
2023/06/30 02:11:27;;;;;;;13.75;9.52;;;11.50;99.90;;;;;;4954658;28;20517;-76
2023/06/30 02:13:53;;;;;;;12.18;9.63;;;11.40;99.90;;;;;;4955090;28;20138;-75
2023/06/30 02:16:19;;;;;;;10.95;9.07;;;11.40;99.90;;;;;;4954663;28;20043;-76
2023/06/30 02:18:44;;;;;;;10.77;8.38;;;11.30;99.90;;;;;;4966310;28;20054;-76
2023/06/30 02:21:10;;;;;;;11.02;8.90;;;11.30;99.90;;;;;;4956817;28;20043;-76
2023/06/30 02:23:35;;;;;;;12.88;9.70;;;11.20;99.90;;;;;;4955056;28;20464;-75
2023/06/30 02:26:01;;;;;;;14.63;11.02;;;11.20;99.90;;;;;;4954686;28;20043;-76
2023/06/30 02:28:26;;;;;;;14.60;9.85;;;11.10;99.90;;;;;;4940151;29;20094;-76
2023/06/30 02:30:53;;;;;;;12.73;10.20;;;11.10;99.90;;;;;;4944747;28;20035;-76
2023/06/30 02:33:19;;;;;;;12.18;10.38;;;11.00;99.90;;;;;;4950254;28;20039;-75
2023/06/30 02:35:45;;;;;;;17.20;11.20;;;11.00;99.90;;;;;;4965815;28;20027;-76
2023/06/30 02:38:10;;;;;;;15.48;9.90;;;11.00;99.90;;;;;;4958322;28;20417;-76
2023/06/30 02:40:36;;;;;;;14.40;10.05;;;10.90;99.90;;;;;;4957649;28;20493;-75
2023/06/30 02:43:02;;;;;;;15.45;9.90;;;10.90;99.90;;;;;;4954460;28;20038;-76
2023/06/30 02:45:28;;;;;;;17.63;10.65;;;10.80;99.90;;;;;;4958197;28;20082;-76
2023/06/30 02:47:54;;;;;;;14.80;8.40;;;10.80;99.90;;;;;;4958121;28;20089;-76
2023/06/30 02:50:27;;;;;;;18.60;10.07;;;10.70;99.90;;;;;;4956558;28;20112;-76
2023/06/30 02:52:53;;;;;;;13.88;8.93;;;10.70;99.90;;;;;;4973561;28;20544;-75
2023/06/30 02:55:19;;;;;;;11.43;9.45;;;10.70;99.90;;;;;;4964027;28;20038;-75
2023/06/30 02:57:44;;;;;;;13.68;11.40;;;10.70;99.90;;;;;;4967919;28;20031;-76
2023/06/30 03:00:10;;;;;;;14.88;9.73;;;10.60;99.90;;;;;;4965130;28;20170;-76
2023/06/30 03:02:36;;;;;;;13.02;10.52;;;10.60;99.90;;;;;;4957428;28;20382;-76
2023/06/30 03:05:01;;;;;;;16.55;10.60;;;10.60;99.90;;;;;;4941758;28;20069;-76
2023/06/30 03:07:27;;;;;;;16.58;9.68;;;10.50;99.90;;;;;;4947862;28;20045;-76
2023/06/30 03:09:53;;;;;;;18.70;11.20;;;10.50;99.90;;;;;;4957315;28;20042;-76
2023/06/30 03:12:18;;;;;;;15.77;11.20;;;10.50;99.90;;;;;;4957010;28;20094;-75
2023/06/30 03:14:44;;;;;;;14.93;10.07;;;10.50;99.90;;;;;;4941931;28;20042;-75
2023/06/30 03:17:10;;;;;;;16.27;9.63;;;10.50;99.90;;;;;;4957454;28;20500;-75
2023/06/30 03:19:35;;;;;;;15.90;11.90;;;10.50;99.90;;;;;;4957156;28;20488;-76
2023/06/30 03:22:01;;;;;;;11.50;9.85;;;10.40;99.90;;;;;;4950536;28;20043;-75
2023/06/30 03:24:26;;;;;;;16.77;10.90;;;10.40;99.90;;;;;;4957570;28;20081;-76
2023/06/30 03:26:52;;;;;;;14.68;10.30;;;10.40;99.90;;;;;;4957231;28;20046;-76
2023/06/30 03:29:17;;;;;;;14.18;11.18;;;10.40;99.90;;;;;;4957458;28;20473;-76
2023/06/30 03:31:43;;;;;;;16.88;12.10;;;10.40;99.90;;;;;;4956237;28;20047;-75
2023/06/30 03:34:08;;;;;;;13.73;11.13;;;10.30;99.90;;;;;;4965146;28;20034;-76
2023/06/30 03:36:34;;;;;;;17.30;11.57;;;10.30;99.90;;;;;;4951269;28;20057;-76
2023/06/30 03:38:59;;;;;;;16.00;10.25;;;10.30;99.90;;;;;;4957213;28;20326;-76
2023/06/30 03:41:26;;;;;;;15.10;10.77;;;10.30;99.90;;;;;;4955448;28;20039;-76
2023/06/30 03:43:52;;;;;;;13.95;10.50;;;10.30;99.90;;;;;;4956308;28;20042;-75
2023/06/30 03:46:17;;;;;;;15.52;11.25;;;10.30;99.90;;;;;;4964583;28;20173;-76
2023/06/30 03:48:43;;;;;;;24.13;14.13;;;10.30;99.90;;;;;;4973117;28;20065;-75
2023/06/30 03:51:09;;;;;;;16.35;11.50;;;10.30;99.90;;;;;;4968680;28;20043;-75
2023/06/30 03:53:34;;;;;;;14.90;11.25;;;10.30;99.90;;;;;;4948922;28;20045;-76
2023/06/30 03:56:00;;;;;;;12.98;9.88;;;10.30;99.90;;;;;;4963901;28;20042;-76
2023/06/30 03:58:27;;;;;;;16.65;11.20;;;10.30;99.90;;;;;;4971754;28;20047;-76
2023/06/30 04:00:53;;;;;;;14.60;9.68;;;10.40;99.90;;;;;;4971111;28;20043;-75
2023/06/30 04:03:18;;;;;;;18.48;11.73;;;10.40;99.90;;;;;;4956508;28;20049;-75
2023/06/30 04:05:44;;;;;;;17.83;11.35;;;10.30;99.90;;;;;;4955823;28;20047;-75
2023/06/30 04:08:09;;;;;;;16.13;10.55;;;10.30;99.90;;;;;;4955979;28;20490;-75
2023/06/30 04:10:35;;;;;;;11.43;8.35;;;10.40;99.90;;;;;;4939459;28;20039;-75
2023/06/30 04:13:04;;;;;;;15.52;11.07;;;10.30;99.90;;;;;;4956488;28;20113;-75
2023/06/30 04:15:30;;;;;;;13.65;10.18;;;10.40;99.90;;;;;;4956367;28;20055;-76
2023/06/30 04:17:55;;;;;;;20.02;13.30;;;10.40;99.90;;;;;;4962049;28;20478;-75
2023/06/30 04:20:21;;;;;;;15.95;10.75;;;10.40;99.90;;;;;;4971610;28;20093;-75
2023/06/30 04:22:47;;;;;;;13.23;10.30;;;10.40;99.90;;;;;;4959916;28;20049;-75
2023/06/30 04:25:13;;;;;;;16.88;11.85;;;10.40;99.90;;;;;;4956318;28;20043;-75
2023/06/30 04:27:39;;;;;;;16.48;11.10;;;10.40;99.90;;;;;;4940320;28;20043;-76
2023/06/30 04:30:08;;;;;;;11.65;9.30;;;10.50;99.90;;;;;;4945908;29;20051;-76
2023/06/30 04:32:34;;;;;;;12.63;10.32;;;10.70;99.90;;;;;;4936546;28;20054;-75
2023/06/30 04:34:59;;;;;;;12.85;11.05;;;10.80;99.90;;;;;;4971772;28;20031;-75
2023/06/30 04:37:31;;;;;;;15.18;10.40;;;11.20;99.90;;;;;;4954025;28;20046;-76
2023/06/30 04:40:00;;;;;;;12.25;10.07;;;11.70;99.90;;;;;;4921219;29;20039;-75
2023/06/30 04:42:28;;;;;;;13.38;9.23;;;12.30;99.90;;;;;;4966273;28;20485;-76
2023/06/30 04:44:54;;;;;;;11.30;7.93;;;12.90;99.90;;;;;;4955628;28;20042;-76
2023/06/30 04:47:20;;;;;;;8.00;6.47;;;13.60;99.90;;;;;;4955687;28;20520;-76
2023/06/30 04:49:45;;;;;;;8.23;6.60;;;14.10;99.90;;;;;;4956040;28;20031;-76
2023/06/30 04:52:11;;;;;;;7.85;5.38;;;14.70;99.90;;;;;;4954159;28;20397;-76
2023/06/30 04:54:37;;;;;;;9.95;5.40;;;15.10;99.90;;;;;;4936763;29;20043;-76
2023/06/30 04:57:05;;;;;;;7.00;5.13;;;15.50;99.90;;;;;;4936439;29;20098;-76
2023/06/30 04:59:30;;;;;;;8.55;4.65;;;15.80;99.90;;;;;;4951363;28;20039;-76
2023/06/30 05:01:56;;;;;;;8.77;5.03;;;16.20;99.90;;;;;;4973155;28;20428;-76
2023/06/30 05:04:22;;;;;;;7.50;5.00;;;16.60;99.90;;;;;;4970708;28;20432;-76
2023/06/30 05:06:47;;;;;;;7.80;5.10;;;17.00;99.90;;;;;;4965987;28;20045;-76
2023/06/30 05:09:13;;;;;;;9.75;4.63;;;17.40;99.90;;;;;;4971753;28;20104;-76
2023/06/30 05:11:38;;;;;;;5.97;4.20;;;17.90;99.90;;;;;;4970646;28;20039;-76
2023/06/30 05:14:04;;;;;;;7.68;4.25;;;18.40;99.90;;;;;;4954547;28;20117;-76
2023/06/30 05:16:30;;;;;;;7.85;4.10;;;18.80;99.90;;;;;;4959045;28;20034;-76
2023/06/30 05:18:56;;;;;;;6.75;4.10;;;19.20;99.90;;;;;;4971971;28;20093;-76
2023/06/30 05:21:21;;;;;;;8.63;3.85;;;19.60;99.90;;;;;;4968236;28;20039;-76
2023/06/30 05:23:47;;;;;;;7.20;4.10;;;19.90;99.90;;;;;;4950344;29;20043;-76
2023/06/30 05:26:12;;;;;;;7.78;3.95;;;20.20;99.90;;;;;;4947538;28;20038;-76
2023/06/30 05:28:38;;;;;;;4.93;3.58;;;20.50;99.90;;;;;;4954752;28;20098;-76
2023/06/30 05:31:04;;;;;;;5.45;3.10;;;20.90;99.90;;;;;;4955338;28;20039;-76
2023/06/30 05:33:30;;;;;;;5.90;3.25;;;21.10;99.90;;;;;;4954769;28;20501;-76
2023/06/30 05:35:55;;;;;;;6.65;3.47;;;21.40;99.90;;;;;;4959706;28;20042;-77
2023/06/30 05:38:21;;;;;;;5.75;2.97;;;21.70;99.90;;;;;;4954878;28;20292;-76
2023/06/30 05:40:46;;;;;;;5.38;2.85;;;21.90;99.90;;;;;;4962405;28;20050;-76
2023/06/30 05:43:12;;;;;;;7.25;2.90;;;22.10;99.90;;;;;;4949947;28;20043;-76
2023/06/30 05:45:39;;;;;;;5.75;2.85;;;22.20;99.90;;;;;;4947745;28;20042;-76
2023/06/30 05:48:04;;;;;;;5.43;3.05;;;22.40;99.90;;;;;;4937096;28;20038;-76
2023/06/30 05:50:30;;;;;;;6.13;2.70;;;22.50;99.90;;;;;;4954880;28;20359;-76
2023/06/30 05:52:56;;;;;;;5.93;2.70;;;22.70;99.90;;;;;;4955326;28;20030;-76
2023/06/30 05:55:21;;;;;;;5.78;2.67;;;22.70;99.90;;;;;;4946219;28;20482;-77
2023/06/30 05:57:47;;;;;;;6.70;2.55;;;22.80;99.90;;;;;;4954050;28;20039;-76
2023/06/30 06:00:13;;;;;;;7.18;2.47;;;22.80;99.90;;;;;;4938774;28;20038;-76
2023/06/30 06:02:39;;;;;;;6.38;3.20;;;22.40;99.90;;;;;;4955380;28;20109;-75
2023/06/30 06:05:05;;;;;;;6.70;2.60;;;21.90;99.90;;;;;;4958814;28;20038;-75
2023/06/30 06:07:31;;;;;;;6.47;2.92;;;21.40;99.90;;;;;;4952447;28;20047;-75
2023/06/30 06:09:56;;;;;;;8.25;3.35;;;20.80;99.90;;;;;;4953508;28;20062;-76
2023/06/30 06:12:22;;;;;;;5.82;2.83;;;20.30;99.90;;;;;;4957455;28;20033;-75
2023/06/30 06:14:47;;;;;;;8.18;2.90;;;19.90;99.90;;;;;;4962568;28;20081;-75
2023/06/30 06:17:13;;;;;;;8.10;2.97;;;19.50;99.90;;;;;;4952912;28;20078;-75
2023/06/30 06:19:39;;;;;;;6.88;2.17;;;19.20;99.90;;;;;;4942559;28;20474;-74
2023/06/30 06:22:05;;;;;;;6.72;2.60;;;18.90;99.90;;;;;;4955958;28;20122;-75
2023/06/30 06:24:30;;;;;;;6.05;2.40;;;18.70;99.90;;;;;;4954671;28;20210;-75
2023/06/30 06:26:56;;;;;;;6.50;2.00;;;18.60;99.90;;;;;;4955947;28;20069;-77
2023/06/30 06:29:22;;;;;;;8.25;2.17;;;18.40;99.90;;;;;;4953943;28;20490;-77
2023/06/30 06:31:52;;;;;;;6.10;2.00;;;18.30;99.90;;;;;;4957490;28;20047;-76
2023/06/30 06:34:18;;;;;;;4.93;2.10;;;18.10;99.90;;;;;;4957977;28;20050;-77
2023/06/30 06:36:44;;;;;;;5.68;1.77;;;18.00;99.90;;;;;;4968605;28;20503;-77
2023/06/30 06:39:10;;;;;;;6.05;1.80;;;18.00;99.90;;;;;;4972132;28;20114;-76
2023/06/30 06:41:36;;;;;;;6.18;1.90;;;17.90;99.90;;;;;;4957956;28;20050;-77
2023/06/30 06:44:02;;;;;;;5.70;1.90;;;17.80;99.90;;;;;;4958263;28;20041;-77
2023/06/30 06:46:28;;;;;;;5.10;1.80;;;17.80;99.90;;;;;;4958175;28;20517;-76
2023/06/30 06:48:54;;;;;;;6.72;2.20;;;17.80;99.90;;;;;;4951754;28;20085;-77
2023/06/30 06:51:20;;;;;;;4.82;1.95;;;17.90;99.90;;;;;;4955945;28;20790;-76
2023/06/30 06:53:46;;;;;;;6.35;1.95;;;18.00;99.90;;;;;;4950261;28;20045;-74
2023/06/30 06:56:12;;;;;;;4.97;1.98;;;18.00;99.90;;;;;;4954357;28;20046;-76
2023/06/30 06:58:38;;;;;;;5.30;1.77;;;18.00;99.90;;;;;;4955512;28;20042;-75
2023/06/30 07:01:04;;;;;;;7.05;1.95;;;18.00;99.90;;;;;;4949785;28;20042;-75
2023/06/30 07:03:30;;;;;;;6.03;1.83;;;17.90;99.90;;;;;;4949513;28;20057;-75
2023/06/30 07:05:56;;;;;;;6.93;2.00;;;18.00;99.90;;;;;;4957256;28;20047;-73
2023/06/30 07:08:22;;;;;;;4.65;2.00;;;18.00;99.90;;;;;;4957690;28;20117;-74
2023/06/30 07:10:50;;;;;;;5.97;1.70;;;18.00;99.90;;;;;;4956902;28;20539;-74
2023/06/30 07:13:19;;;;;;;5.75;2.03;;;18.00;99.90;;;;;;4969743;28;20074;-74
2023/06/30 07:18:24;;;;;;;6.15;1.70;;;18.00;99.90;;;;;;5136982;23;20057;-78
2023/06/30 07:21:09;;;;;;;6.03;2.15;;;18.00;99.90;;;;;;4962417;28;20275;-78
2023/06/30 07:23:57;;;;;;;5.32;1.88;;;18.10;99.90;;;;;;4962537;28;20074;-79
2023/06/30 07:26:35;;;;;;;6.53;1.83;;;18.10;99.90;;;;;;4963108;28;20034;-80
2023/06/30 07:29:31;;;;;;;6.93;1.60;;;18.10;99.90;;;;;;4971021;28;20042;-79
2023/06/30 07:32:13;;;;;;;6.43;1.88;;;18.10;99.90;;;;;;4967951;28;20054;-76
2023/06/30 07:34:42;;;;;;;21.73;3.13;;;18.30;99.90;;;;;;4954408;28;20038;-77
2023/06/30 07:40:48;;;;;;;6.20;2.15;;;18.70;99.90;;;;;;4928364;29;20048;-78
2023/06/30 07:43:17;;;;;;;7.07;2.17;;;18.90;99.90;;;;;;4916930;28;20050;-77
2023/06/30 07:45:44;;;;;;;7.50;1.80;;;19.20;99.90;;;;;;4958446;28;20056;-80
2023/06/30 07:48:23;;;;;;;3.45;1.70;;;19.40;99.90;;;;;;4960713;28;20133;-80
2023/06/30 07:51:01;;;;;;;5.22;1.95;;;19.80;99.90;;;;;;4968667;28;20039;-80
2023/06/30 07:53:52;;;;;;;;;;;;;;;;;;;;;
2023/06/30 07:56:30;;;;;;;4.18;1.40;;;20.70;99.90;;;;;;4994225;28;20070;-80
2023/06/30 07:59:03;;;;;;;4.43;1.50;;;21.50;99.90;;;;;;4995505;28;20042;-81
2023/06/30 08:01:48;;;;;;;4.63;1.52;;;22.20;99.90;;;;;;4996555;28;20042;-80
2023/06/30 08:04:24;;;;;;;5.07;1.50;;;22.70;99.90;;;;;;4971442;28;20040;-80
2023/06/30 08:07:21;;;;;;;2.97;1.40;;;23.00;99.90;;;;;;4954193;28;20085;-80
2023/06/30 08:10:55;;;;;;;3.45;1.30;;;23.50;99.90;;;;;;4909235;29;21946;-80
2023/06/30 08:14:14;;;;;;;4.18;1.52;;;23.70;96.60;;;;;;4961481;28;20124;-81
2023/06/30 08:16:56;;;;;;;4.72;1.42;;;23.70;95.10;;;;;;4922005;28;20054;-81
2023/06/30 08:19:26;;;;;;;4.90;1.30;;;24.20;99.90;;;;;;4945564;28;20081;-81
2023/06/30 08:22:22;;;;;;;4.80;1.60;;;24.90;99.90;;;;;;4982587;28;20053;-80
2023/06/30 08:24:48;;;;;;;5.15;1.23;;;25.50;96.30;;;;;;4956860;28;20039;-79
2023/06/30 08:27:36;;;;;;;4.05;1.13;;;25.70;96.90;;;;;;4967349;28;20105;-80
2023/06/30 08:30:36;;;;;;;2.92;1.10;;;25.70;90.10;;;;;;4991104;28;20117;-80
2023/06/30 08:33:13;;;;;;;3.88;1.42;;;25.20;74.60;;;;;;4997686;28;20050;-79
2023/06/30 08:35:43;;;;;;;3.55;1.10;;;24.90;93.40;;;;;;4974472;28;20042;-80
2023/06/30 08:38:24;;;;;;;5.03;1.30;;;25.00;89.30;;;;;;4978993;28;20039;-81
2023/06/30 08:41:03;;;;;;;4.13;1.30;;;24.80;85.40;;;;;;4981986;28;20088;-80
2023/06/30 08:43:40;;;;;;;3.83;1.63;;;24.30;84.30;;;;;;4982026;28;20046;-80
2023/06/30 08:46:22;;;;;;;4.47;1.20;;;23.90;90.00;;;;;;4988737;28;20046;-80
2023/06/30 08:49:01;;;;;;;4.78;1.50;;;23.50;97.10;;;;;;4970731;28;20054;-80
2023/06/30 08:51:37;;;;;;;5.88;1.40;;;23.00;89.30;;;;;;4997740;28;20528;-80
2023/06/30 08:54:17;;;;;;;4.53;1.48;;;22.50;98.20;;;;;;4982618;28;20051;-80
2023/06/30 08:57:00;;;;;;;4.40;1.40;;;22.40;99.90;;;;;;4982664;28;20107;-80
2023/06/30 08:59:28;;;;;;;2.95;1.30;;;23.10;99.90;;;;;;4976023;28;20117;-80
2023/06/30 09:02:25;;;;;;;4.15;1.38;;;24.00;97.60;;;;;;4969913;28;20042;-80
2023/06/30 09:05:27;;;;;;;;;;;;;;;;;;;;;
2023/06/30 09:08:16;;;;;;;4.13;1.52;;;25.60;72.40;;;;;;4978351;28;20053;-80
2023/06/30 09:11:59;;;;;;;4.35;1.30;;;26.20;68.50;;;;;;4994597;28;20468;-80
2023/06/30 09:14:46;;;;;;;5.60;1.17;;;25.80;60.60;;;;;;4953917;28;20061;-80
2023/06/30 09:17:47;;;;;;;;;;;;;;;;;;;;;
2023/06/30 09:20:20;;;;;;;4.95;1.30;;;23.80;71.10;;;;;;4992470;28;20048;-80
2023/06/30 09:23:01;;;;;;;3.80;1.50;;;23.20;75.40;;;;;;4971480;28;20440;-80
2023/06/30 09:25:49;;;;;;;4.80;1.50;;;23.00;96.00;;;;;;4978851;28;20400;-80
2023/06/30 09:28:50;;;;;;;3.47;1.20;;;23.30;94.50;;;;;;4977850;28;20050;-80
2023/06/30 09:32:28;;;;;;;;;;;;;;;;;;;;;
2023/06/30 09:39:16;;;;;;;3.97;1.08;;;25.90;74.80;;;;;;4965971;28;20034;-80
2023/06/30 09:42:09;;;;;;;5.05;1.40;;;26.80;72.10;;;;;;4964953;28;20512;-79
2023/06/30 09:44:57;;;;;;;2.92;1.40;;;27.40;68.50;;;;;;4948843;28;20042;-80
2023/06/30 09:47:48;;;;;;;4.10;1.10;;;27.80;66.80;;;;;;4971606;28;20104;-80
2023/06/30 09:51:12;;;;;;;5.53;1.30;;;28.20;66.00;;;;;;4969463;28;20042;-80
2023/06/30 09:54:11;;;;;;;3.08;1.13;;;28.60;61.80;;;;;;4982873;28;20038;-80
2023/06/30 09:56:46;;;;;;;4.85;1.27;;;28.90;61.60;;;;;;4979983;28;20034;-80
2023/06/30 09:59:23;;;;;;;2.58;1.02;;;29.20;60.50;;;;;;4963538;28;20065;-80
2023/06/30 10:02:11;;;;;;;4.95;0.93;;;29.50;60.20;;;;;;4954335;28;20042;-81
2023/06/30 10:05:06;;;;;;;;;;;;;;;;;;;;;
2023/06/30 10:08:25;;;;;;;2.60;1.10;;;30.00;57.90;;;;;;4917709;29;20046;-80
2023/06/30 10:18:22;;;;;;;4.38;1.60;;;30.60;54.80;;;;;;4922599;29;20441;-80
2023/06/30 10:21:25;;;;;;;4.70;1.42;;;30.70;54.90;;;;;;4938946;29;20134;-80
2023/06/30 10:24:48;;;;;;;3.17;1.00;;;30.70;54.40;;;;;;4959212;28;20453;-80
2023/06/30 10:27:28;;;;;;;3.70;1.20;;;30.50;53.50;;;;;;4966054;28;20050;-80
2023/06/30 10:30:09;;;;;;;;;;;;;;;;;;;;;
2023/06/30 10:33:08;;;;;;;3.13;1.50;;;30.00;54.40;;;;;;4990090;28;20400;-80
2023/06/30 10:36:01;;;;;;;2.80;1.13;;;30.00;54.00;;;;;;4978196;28;20060;-80
2023/06/30 10:39:59;;;;;;;2.47;1.30;;;30.10;52.70;;;;;;4984210;28;20043;-79
2023/06/30 10:43:17;;;;;;;3.63;1.20;;;30.00;52.90;;;;;;4976588;28;20570;-80
2023/06/30 10:46:24;;;;;;;2.80;1.00;;;29.80;51.40;;;;;;4975604;28;20496;-80
2023/06/30 10:49:53;;;;;;;2.15;1.25;;;29.60;51.20;;;;;;4996282;28;20053;-80
2023/06/30 10:52:42;;;;;;;3.97;1.27;;;29.00;52.80;;;;;;4977868;28;20057;-80
2023/06/30 10:55:20;;;;;;;2.50;1.20;;;28.40;52.80;;;;;;4957981;28;20061;-80
2023/06/30 10:57:54;;;;;;;3.45;1.20;;;28.10;54.10;;;;;;4978661;28;20034;-79
2023/06/30 11:00:31;;;;;;;2.95;1.40;;;27.80;55.40;;;;;;4979460;28;20511;-79
2023/06/30 11:03:06;;;;;;;3.38;1.35;;;27.60;55.90;;;;;;4979452;28;20046;-80
2023/06/30 11:05:35;;;;;;;2.95;1.23;;;27.60;56.30;;;;;;4978417;28;20396;-79
2023/06/30 11:08:07;;;;;;;3.88;1.40;;;28.20;55.80;;;;;;4970270;28;20381;-80
2023/06/30 11:10:50;;;;;;;3.97;1.45;;;29.00;55.50;;;;;;4964352;28;20515;-80
2023/06/30 11:13:44;;;;;;;3.78;1.10;;;29.80;53.30;;;;;;4962252;28;20192;-79
2023/06/30 11:16:24;;;;;;;4.45;1.38;;;30.00;53.10;;;;;;4962883;28;20043;-79
2023/06/30 11:19:02;;;;;;;3.55;1.40;;;29.80;50.70;;;;;;4971942;28;20038;-79
2023/06/30 11:21:35;;;;;;;4.60;1.25;;;29.60;53.30;;;;;;4965593;28;20413;-80
2023/06/30 11:24:19;;;;;;;5.32;1.40;;;29.90;53.10;;;;;;4975689;28;20129;-79
2023/06/30 11:27:05;;;;;;;5.32;1.70;;;30.10;53.10;;;;;;4984315;28;20057;-80
2023/06/30 11:29:35;;;;;;;7.45;1.60;;;29.60;53.20;;;;;;4983604;28;20058;-79
2023/06/30 11:32:19;;;;;;;6.00;1.70;;;28.90;54.20;;;;;;4993426;28;20038;-79
2023/06/30 11:35:05;;;;;;;3.95;1.55;;;28.50;55.60;;;;;;4972364;28;20568;-79
2023/06/30 11:37:54;;;;;;;3.80;1.42;;;28.70;56.80;;;;;;4981879;28;20072;-80
2023/06/30 11:40:32;;;;;;;4.10;1.65;;;29.40;57.00;;;;;;4965826;28;20121;-79
2023/06/30 11:46:19;;;;;;;3.95;1.65;;;30.60;54.30;;;;;;4930803;29;20531;-80
2023/06/30 11:48:55;;;;;;;4.57;1.70;;;30.80;51.80;;;;;;4965603;28;20046;-80
2023/06/30 11:51:54;;;;;;;4.63;1.70;;;30.90;52.70;;;;;;4965680;28;20129;-80
2023/06/30 11:54:32;;;;;;;3.70;1.35;;;31.10;53.00;;;;;;4971551;28;20043;-80
2023/06/30 11:57:08;;;;;;;2.38;1.10;;;31.30;53.10;;;;;;4987825;28;20034;-80
2023/06/30 11:59:48;;;;;;;2.75;1.10;;;31.60;52.90;;;;;;4961674;28;20045;-80
2023/06/30 12:02:51;;;;;;;5.80;1.40;;;31.80;52.10;;;;;;4959734;28;20041;-79
2023/06/30 12:10:01;;;;;;;3.55;1.40;;;31.40;50.90;;;;;;4983875;28;20531;-81
2023/06/30 12:13:12;;;;;;;6.28;1.30;;;30.90;51.50;;;;;;4961521;28;20405;-81
2023/06/30 12:16:02;;;;;;;4.35;1.55;;;30.60;50.00;;;;;;4952902;28;20046;-82
2023/06/30 12:26:20;;;;;;;2.63;1.25;;;29.60;49.70;;;;;;4897535;28;20087;-79
2023/06/30 12:29:35;;;;;;;4.10;1.60;;;28.80;52.00;;;;;;4923532;29;20047;-79
2023/06/30 12:36:16;;;;;;;4.10;1.73;;;29.90;52.60;;;;;;4933805;28;20519;-80
2023/06/30 12:38:52;;;;;;;4.35;1.90;;;30.20;52.70;;;;;;4980175;28;20106;-80
2023/06/30 12:41:32;;;;;;;4.28;1.80;;;30.60;52.80;;;;;;4980062;28;20092;-80
2023/06/30 12:44:23;;;;;;;4.15;1.55;;;30.90;50.70;;;;;;4976464;28;20118;-80
2023/06/30 12:47:19;;;;;;;3.35;1.67;;;31.30;51.70;;;;;;4988461;28;20042;-80
2023/06/30 12:53:25;;;;;;;3.08;1.40;;;32.00;47.90;;;;;;4994160;28;20223;-80
2023/06/30 12:58:59;;;;;;;3.03;1.52;;;31.20;49.80;;;;;;5103113;23;20419;-80
2023/06/30 13:05:02;;;;;;;2.70;1.40;;;31.40;48.90;;;;;;4937779;29;20121;-80
2023/06/30 13:08:12;;;;;;;4.03;1.45;;;31.20;50.50;;;;;;4922042;29;20125;-81
2023/06/30 13:10:38;;;;;;;4.18;1.75;;;31.20;49.10;;;;;;4923114;23;20047;-75
2023/06/30 13:13:04;;;;;;;2.50;1.25;;;30.70;48.90;;;;;;4936492;29;20051;-75
2023/06/30 13:15:29;;;;;;;2.90;1.50;;;30.20;50.50;;;;;;4936581;29;20037;-75
2023/06/30 13:17:55;;;;;;;3.63;1.40;;;30.20;52.30;;;;;;4936339;29;20442;-75
2023/06/30 13:20:21;;;;;;;7.70;2.45;;;30.10;51.00;;;;;;4920680;29;20039;-75
2023/06/30 13:22:47;;;;;;;3.53;1.45;;;30.00;49.70;;;;;;4936167;29;20086;-75
2023/06/30 13:25:13;;;;;;;21.15;4.65;;;29.90;50.50;;;;;;4935656;29;20047;-75
2023/06/30 13:27:40;;;;;;;5.10;1.40;;;29.70;50.80;;;;;;4936090;29;20046;-75
2023/06/30 13:30:07;;;;;;;4.72;1.90;;;29.60;52.40;;;;;;4936447;29;20043;-75
2023/06/30 13:32:33;;;;;;;3.95;1.60;;;29.90;50.70;;;;;;4935744;29;20047;-76
2023/06/30 13:35:00;;;;;;;10.90;2.40;;;30.20;52.30;;;;;;4936508;29;20035;-75
2023/06/30 13:37:26;;;;;;;3.67;1.70;;;30.50;51.70;;;;;;4920235;29;20478;-75
2023/06/30 13:39:51;;;;;;;4.38;1.63;;;30.90;52.00;;;;;;4935454;29;20046;-75
2023/06/30 13:42:17;;;;;;;4.25;1.60;;;31.10;51.30;;;;;;4920321;29;20038;-76
2023/06/30 13:44:43;;;;;;;3.63;1.90;;;31.10;50.80;;;;;;4936406;29;20051;-76
2023/06/30 13:47:09;;;;;;;3.55;1.40;;;31.10;51.20;;;;;;4935331;29;20047;-76
2023/06/30 13:49:34;;;;;;;2.65;1.65;;;31.10;50.80;;;;;;4935508;29;20042;-75
2023/06/30 13:52:00;;;;;;;4.78;1.77;;;31.30;50.00;;;;;;4936156;29;20195;-76
2023/06/30 13:54:25;;;;;;;4.80;1.90;;;31.40;49.80;;;;;;4936380;29;20100;-76
2023/06/30 13:56:52;;;;;;;3.63;1.80;;;31.40;49.70;;;;;;4920160;29;20053;-75
2023/06/30 13:59:17;;;;;;;3.55;1.60;;;31.50;49.70;;;;;;4934658;29;20031;-76
2023/06/30 14:01:43;;;;;;;3.20;1.88;;;31.40;48.80;;;;;;4935433;29;20582;-75
2023/06/30 14:04:09;;;;;;;5.80;2.20;;;30.90;47.50;;;;;;4935249;29;20659;-75
2023/06/30 14:06:34;;;;;;;5.15;1.95;;;30.20;49.90;;;;;;4933025;29;20093;-76
2023/06/30 14:09:00;;;;;;;3.78;1.80;;;29.50;49.60;;;;;;4936289;29;20489;-76